sensor_id;sensor_type;location;lat;lon;timestamp;P1;durP1;ratioP1;P2;durP2;ratioP2
16705;SDS011;8469;60.136;15.180;2022-12-19T00:03:37;1.45;;;0.85;;
16705;SDS011;8469;60.136;15.180;2022-12-19T00:06:04;1.40;;;0.80;;
16705;SDS011;8469;60.136;15.180;2022-12-19T00:08:31;1.50;;;0.90;;
16705;SDS011;8469;60.136;15.180;2022-12-19T00:10:59;1.60;;;0.80;;
16705;SDS011;8469;60.136;15.180;2022-12-19T00:13:30;2.27;;;0.93;;
16705;SDS011;8469;60.136;15.180;2022-12-19T00:16:05;1.35;;;0.82;;
16705;SDS011;8469;60.136;15.180;2022-12-19T00:18:33;1.75;;;0.70;;
16705;SDS011;8469;60.136;15.180;2022-12-19T00:21:02;3.87;;;0.90;;
16705;SDS011;8469;60.136;15.180;2022-12-19T00:23:30;2.90;;;1.40;;
16705;SDS011;8469;60.136;15.180;2022-12-19T00:26:10;2.20;;;1.22;;
16705;SDS011;8469;60.136;15.180;2022-12-19T00:28:38;5.22;;;2.87;;
16705;SDS011;8469;60.136;15.180;2022-12-19T00:31:06;4.17;;;1.92;;
16705;SDS011;8469;60.136;15.180;2022-12-19T00:33:33;1.70;;;1.42;;
16705;SDS011;8469;60.136;15.180;2022-12-19T00:36:01;3.08;;;1.10;;
16705;SDS011;8469;60.136;15.180;2022-12-19T00:38:29;3.37;;;0.82;;
16705;SDS011;8469;60.136;15.180;2022-12-19T00:43:35;2.95;;;0.80;;
16705;SDS011;8469;60.136;15.180;2022-12-19T00:46:03;3.05;;;0.90;;
16705;SDS011;8469;60.136;15.180;2022-12-19T00:48:30;2.50;;;1.00;;
16705;SDS011;8469;60.136;15.180;2022-12-19T00:51:01;1.93;;;1.20;;
16705;SDS011;8469;60.136;15.180;2022-12-19T00:53:29;2.33;;;1.45;;
16705;SDS011;8469;60.136;15.180;2022-12-19T00:55:59;2.80;;;1.25;;
16705;SDS011;8469;60.136;15.180;2022-12-19T00:58:25;1.50;;;0.60;;
16705;SDS011;8469;60.136;15.180;2022-12-19T01:00:53;3.22;;;0.93;;
16705;SDS011;8469;60.136;15.180;2022-12-19T01:03:20;2.85;;;0.90;;
16705;SDS011;8469;60.136;15.180;2022-12-19T01:05:48;2.62;;;0.88;;
16705;SDS011;8469;60.136;15.180;2022-12-19T01:08:16;2.10;;;0.80;;
16705;SDS011;8469;60.136;15.180;2022-12-19T01:10:44;2.85;;;0.78;;
16705;SDS011;8469;60.136;15.180;2022-12-19T01:13:12;2.12;;;0.68;;
16705;SDS011;8469;60.136;15.180;2022-12-19T01:15:40;3.72;;;0.85;;
16705;SDS011;8469;60.136;15.180;2022-12-19T01:18:08;2.25;;;0.90;;
16705;SDS011;8469;60.136;15.180;2022-12-19T01:20:42;2.62;;;0.70;;
16705;SDS011;8469;60.136;15.180;2022-12-19T01:23:12;5.33;;;1.70;;
16705;SDS011;8469;60.136;15.180;2022-12-19T01:25:40;3.87;;;1.42;;
16705;SDS011;8469;60.136;15.180;2022-12-19T01:28:09;3.00;;;1.10;;
16705;SDS011;8469;60.136;15.180;2022-12-19T01:30:37;6.55;;;2.15;;
16705;SDS011;8469;60.136;15.180;2022-12-19T01:33:05;6.33;;;1.70;;
16705;SDS011;8469;60.136;15.180;2022-12-19T01:35:32;3.53;;;1.30;;
16705;SDS011;8469;60.136;15.180;2022-12-19T01:38:00;3.25;;;1.62;;
16705;SDS011;8469;60.136;15.180;2022-12-19T01:40:27;4.53;;;2.25;;
16705;SDS011;8469;60.136;15.180;2022-12-19T01:42:54;3.07;;;1.40;;
16705;SDS011;8469;60.136;15.180;2022-12-19T01:45:27;3.85;;;1.30;;
16705;SDS011;8469;60.136;15.180;2022-12-19T01:47:55;2.12;;;1.00;;
16705;SDS011;8469;60.136;15.180;2022-12-19T01:50:28;2.72;;;1.05;;
16705;SDS011;8469;60.136;15.180;2022-12-19T01:52:54;2.15;;;1.00;;
16705;SDS011;8469;60.136;15.180;2022-12-19T01:55:24;2.27;;;1.00;;
16705;SDS011;8469;60.136;15.180;2022-12-19T01:57:52;2.12;;;1.15;;
16705;SDS011;8469;60.136;15.180;2022-12-19T02:00:20;1.90;;;1.00;;
16705;SDS011;8469;60.136;15.180;2022-12-19T02:02:55;3.33;;;1.27;;
16705;SDS011;8469;60.136;15.180;2022-12-19T02:05:21;3.77;;;1.67;;
16705;SDS011;8469;60.136;15.180;2022-12-19T02:07:51;2.37;;;1.50;;
16705;SDS011;8469;60.136;15.180;2022-12-19T02:10:19;1.55;;;1.15;;
16705;SDS011;8469;60.136;15.180;2022-12-19T02:12:46;2.75;;;1.35;;
16705;SDS011;8469;60.136;15.180;2022-12-19T02:15:13;3.17;;;1.22;;
16705;SDS011;8469;60.136;15.180;2022-12-19T02:31:26;3.03;;;1.33;;
16705;SDS011;8469;60.136;15.180;2022-12-19T02:34:02;4.95;;;1.35;;
16705;SDS011;8469;60.136;15.180;2022-12-19T02:36:31;6.70;;;1.77;;
16705;SDS011;8469;60.136;15.180;2022-12-19T02:38:57;1.25;;;1.12;;
16705;SDS011;8469;60.136;15.180;2022-12-19T02:41:29;2.65;;;1.10;;
16705;SDS011;8469;60.136;15.180;2022-12-19T02:43:58;4.97;;;1.30;;
16705;SDS011;8469;60.136;15.180;2022-12-19T02:46:26;5.80;;;1.45;;
16705;SDS011;8469;60.136;15.180;2022-12-19T02:48:54;2.42;;;1.12;;
16705;SDS011;8469;60.136;15.180;2022-12-19T02:51:22;2.62;;;1.32;;
16705;SDS011;8469;60.136;15.180;2022-12-19T02:53:50;2.87;;;1.20;;
16705;SDS011;8469;60.136;15.180;2022-12-19T02:56:29;3.47;;;1.65;;
16705;SDS011;8469;60.136;15.180;2022-12-19T03:01:49;1.50;;;1.35;;
16705;SDS011;8469;60.136;15.180;2022-12-19T03:09:43;3.92;;;1.32;;
16705;SDS011;8469;60.136;15.180;2022-12-19T03:12:10;1.32;;;1.00;;
16705;SDS011;8469;60.136;15.180;2022-12-19T03:14:37;3.33;;;1.22;;
16705;SDS011;8469;60.136;15.180;2022-12-19T03:17:05;4.58;;;1.00;;
16705;SDS011;8469;60.136;15.180;2022-12-19T03:19:34;2.42;;;0.85;;
16705;SDS011;8469;60.136;15.180;2022-12-19T03:22:01;1.82;;;0.82;;
16705;SDS011;8469;60.136;15.180;2022-12-19T03:24:29;2.80;;;0.82;;
16705;SDS011;8469;60.136;15.180;2022-12-19T03:26:58;3.60;;;0.90;;
16705;SDS011;8469;60.136;15.180;2022-12-19T03:29:29;3.27;;;1.00;;
16705;SDS011;8469;60.136;15.180;2022-12-19T03:31:58;1.87;;;0.72;;
16705;SDS011;8469;60.136;15.180;2022-12-19T03:34:27;1.52;;;1.12;;
16705;SDS011;8469;60.136;15.180;2022-12-19T03:36:55;3.90;;;1.20;;
16705;SDS011;8469;60.136;15.180;2022-12-19T03:39:24;5.77;;;1.07;;
16705;SDS011;8469;60.136;15.180;2022-12-19T03:41:51;2.20;;;1.30;;
16705;SDS011;8469;60.136;15.180;2022-12-19T03:44:38;3.50;;;1.00;;
16705;SDS011;8469;60.136;15.180;2022-12-19T03:47:13;4.20;;;0.90;;
16705;SDS011;8469;60.136;15.180;2022-12-19T03:49:40;3.40;;;1.00;;
16705;SDS011;8469;60.136;15.180;2022-12-19T03:52:14;3.45;;;0.90;;
16705;SDS011;8469;60.136;15.180;2022-12-19T03:54:40;2.77;;;0.90;;
16705;SDS011;8469;60.136;15.180;2022-12-19T03:57:10;2.83;;;0.80;;
16705;SDS011;8469;60.136;15.180;2022-12-19T03:59:42;5.08;;;1.20;;
16705;SDS011;8469;60.136;15.180;2022-12-19T04:02:09;3.08;;;1.20;;
16705;SDS011;8469;60.136;15.180;2022-12-19T04:04:46;2.50;;;1.40;;
16705;SDS011;8469;60.136;15.180;2022-12-19T04:07:09;1.30;;;1.20;;
16705;SDS011;8469;60.136;15.180;2022-12-19T04:09:37;4.37;;;1.10;;
16705;SDS011;8469;60.136;15.180;2022-12-19T04:12:12;2.98;;;1.00;;
16705;SDS011;8469;60.136;15.180;2022-12-19T04:14:35;4.10;;;1.27;;
16705;SDS011;8469;60.136;15.180;2022-12-19T04:19:37;2.60;;;0.90;;
16705;SDS011;8469;60.136;15.180;2022-12-19T04:22:09;3.00;;;1.35;;
16705;SDS011;8469;60.136;15.180;2022-12-19T04:24:36;4.50;;;1.02;;
16705;SDS011;8469;60.136;15.180;2022-12-19T04:27:04;3.27;;;0.98;;
16705;SDS011;8469;60.136;15.180;2022-12-19T04:29:33;1.72;;;0.90;;
16705;SDS011;8469;60.136;15.180;2022-12-19T04:32:01;2.93;;;0.93;;
16705;SDS011;8469;60.136;15.180;2022-12-19T04:34:30;2.70;;;1.00;;
16705;SDS011;8469;60.136;15.180;2022-12-19T04:36:57;4.50;;;1.10;;
16705;SDS011;8469;60.136;15.180;2022-12-19T04:39:25;2.37;;;1.07;;
16705;SDS011;8469;60.136;15.180;2022-12-19T04:41:53;1.00;;;0.93;;
16705;SDS011;8469;60.136;15.180;2022-12-19T04:44:20;1.27;;;1.10;;
16705;SDS011;8469;60.136;15.180;2022-12-19T04:46:48;2.22;;;1.00;;
16705;SDS011;8469;60.136;15.180;2022-12-19T04:49:15;5.20;;;1.67;;
16705;SDS011;8469;60.136;15.180;2022-12-19T04:51:43;3.60;;;1.70;;
16705;SDS011;8469;60.136;15.180;2022-12-19T04:54:10;2.05;;;1.30;;
16705;SDS011;8469;60.136;15.180;2022-12-19T04:56:37;1.95;;;1.15;;
16705;SDS011;8469;60.136;15.180;2022-12-19T04:59:05;4.53;;;1.15;;
16705;SDS011;8469;60.136;15.180;2022-12-19T05:01:32;9.88;;;0.93;;
16705;SDS011;8469;60.136;15.180;2022-12-19T05:03:59;1.45;;;1.10;;
16705;SDS011;8469;60.136;15.180;2022-12-19T05:06:27;4.47;;;1.10;;
16705;SDS011;8469;60.136;15.180;2022-12-19T05:08:54;3.90;;;0.90;;
16705;SDS011;8469;60.136;15.180;2022-12-19T05:11:22;3.17;;;1.10;;
16705;SDS011;8469;60.136;15.180;2022-12-19T05:13:49;4.08;;;1.30;;
16705;SDS011;8469;60.136;15.180;2022-12-19T05:16:16;4.37;;;1.50;;
16705;SDS011;8469;60.136;15.180;2022-12-19T05:18:44;2.72;;;1.50;;
16705;SDS011;8469;60.136;15.180;2022-12-19T05:21:11;4.20;;;1.37;;
16705;SDS011;8469;60.136;15.180;2022-12-19T05:23:39;3.47;;;1.07;;
16705;SDS011;8469;60.136;15.180;2022-12-19T05:26:07;3.30;;;1.52;;
16705;SDS011;8469;60.136;15.180;2022-12-19T05:28:34;2.87;;;1.40;;
16705;SDS011;8469;60.136;15.180;2022-12-19T05:31:10;2.65;;;1.32;;
16705;SDS011;8469;60.136;15.180;2022-12-19T05:33:33;2.52;;;1.15;;
16705;SDS011;8469;60.136;15.180;2022-12-19T05:36:02;1.57;;;0.90;;
16705;SDS011;8469;60.136;15.180;2022-12-19T05:38:30;2.47;;;1.10;;
16705;SDS011;8469;60.136;15.180;2022-12-19T05:40:58;2.10;;;0.90;;
16705;SDS011;8469;60.136;15.180;2022-12-19T05:43:25;4.67;;;1.20;;
16705;SDS011;8469;60.136;15.180;2022-12-19T05:45:53;2.77;;;1.30;;
16705;SDS011;8469;60.136;15.180;2022-12-19T05:48:20;2.13;;;1.20;;
16705;SDS011;8469;60.136;15.180;2022-12-19T05:50:48;3.30;;;1.30;;
16705;SDS011;8469;60.136;15.180;2022-12-19T05:53:16;5.97;;;1.30;;
16705;SDS011;8469;60.136;15.180;2022-12-19T05:55:44;6.65;;;1.20;;
16705;SDS011;8469;60.136;15.180;2022-12-19T05:58:11;9.07;;;1.60;;
16705;SDS011;8469;60.136;15.180;2022-12-19T06:00:38;18.17;;;5.28;;
16705;SDS011;8469;60.136;15.180;2022-12-19T06:03:06;13.10;;;4.10;;
16705;SDS011;8469;60.136;15.180;2022-12-19T06:05:35;6.40;;;1.60;;
16705;SDS011;8469;60.136;15.180;2022-12-19T06:08:02;7.80;;;2.27;;
16705;SDS011;8469;60.136;15.180;2022-12-19T06:10:29;14.60;;;2.58;;
16705;SDS011;8469;60.136;15.180;2022-12-19T06:12:57;15.03;;;3.08;;
16705;SDS011;8469;60.136;15.180;2022-12-19T06:15:24;14.07;;;2.75;;
16705;SDS011;8469;60.136;15.180;2022-12-19T06:17:52;16.73;;;2.42;;
16705;SDS011;8469;60.136;15.180;2022-12-19T06:20:20;8.03;;;2.08;;
16705;SDS011;8469;60.136;15.180;2022-12-19T06:22:47;13.28;;;2.40;;
16705;SDS011;8469;60.136;15.180;2022-12-19T06:25:14;11.73;;;2.52;;
16705;SDS011;8469;60.136;15.180;2022-12-19T06:27:42;16.87;;;2.80;;
16705;SDS011;8469;60.136;15.180;2022-12-19T06:30:09;18.07;;;3.17;;
16705;SDS011;8469;60.136;15.180;2022-12-19T06:32:37;19.90;;;3.53;;
16705;SDS011;8469;60.136;15.180;2022-12-19T06:35:04;20.82;;;5.35;;
16705;SDS011;8469;60.136;15.180;2022-12-19T06:37:32;31.07;;;3.65;;
16705;SDS011;8469;60.136;15.180;2022-12-19T06:39:59;28.98;;;4.03;;
16705;SDS011;8469;60.136;15.180;2022-12-19T06:42:27;35.35;;;4.40;;
16705;SDS011;8469;60.136;15.180;2022-12-19T06:44:54;53.33;;;5.92;;
16705;SDS011;8469;60.136;15.180;2022-12-19T06:47:22;43.10;;;8.15;;
16705;SDS011;8469;60.136;15.180;2022-12-19T06:49:50;81.78;;;8.00;;
16705;SDS011;8469;60.136;15.180;2022-12-19T06:52:17;77.15;;;6.17;;
16705;SDS011;8469;60.136;15.180;2022-12-19T06:54:45;39.50;;;4.90;;
16705;SDS011;8469;60.136;15.180;2022-12-19T06:57:12;78.10;;;5.40;;
16705;SDS011;8469;60.136;15.180;2022-12-19T06:59:40;45.70;;;5.25;;
16705;SDS011;8469;60.136;15.180;2022-12-19T07:02:20;50.98;;;4.95;;
16705;SDS011;8469;60.136;15.180;2022-12-19T07:04:46;67.92;;;5.33;;
16705;SDS011;8469;60.136;15.180;2022-12-19T07:07:14;54.55;;;5.83;;
16705;SDS011;8469;60.136;15.180;2022-12-19T07:09:41;43.75;;;5.90;;
16705;SDS011;8469;60.136;15.180;2022-12-19T07:12:08;62.55;;;6.67;;
16705;SDS011;8469;60.136;15.180;2022-12-19T07:14:36;25.45;;;3.90;;
16705;SDS011;8469;60.136;15.180;2022-12-19T07:17:03;20.55;;;3.47;;
16705;SDS011;8469;60.136;15.180;2022-12-19T07:19:31;23.07;;;3.47;;
16705;SDS011;8469;60.136;15.180;2022-12-19T07:21:59;18.20;;;3.52;;
16705;SDS011;8469;60.136;15.180;2022-12-19T07:24:27;15.90;;;3.92;;
16705;SDS011;8469;60.136;15.180;2022-12-19T07:26:55;19.77;;;3.10;;
16705;SDS011;8469;60.136;15.180;2022-12-19T07:29:22;24.70;;;3.60;;
16705;SDS011;8469;60.136;15.180;2022-12-19T07:31:50;16.80;;;3.60;;
16705;SDS011;8469;60.136;15.180;2022-12-19T07:34:18;22.30;;;4.30;;
16705;SDS011;8469;60.136;15.180;2022-12-19T07:36:45;18.55;;;3.72;;
16705;SDS011;8469;60.136;15.180;2022-12-19T07:39:12;16.47;;;3.87;;
16705;SDS011;8469;60.136;15.180;2022-12-19T07:41:40;16.35;;;4.00;;
16705;SDS011;8469;60.136;15.180;2022-12-19T07:44:07;20.08;;;4.00;;
16705;SDS011;8469;60.136;15.180;2022-12-19T07:46:35;18.32;;;3.95;;
16705;SDS011;8469;60.136;15.180;2022-12-19T07:49:02;21.37;;;4.30;;
16705;SDS011;8469;60.136;15.180;2022-12-19T07:51:29;21.00;;;4.40;;
16705;SDS011;8469;60.136;15.180;2022-12-19T07:53:57;29.12;;;4.95;;
16705;SDS011;8469;60.136;15.180;2022-12-19T07:56:24;25.43;;;5.08;;
16705;SDS011;8469;60.136;15.180;2022-12-19T07:58:51;36.20;;;5.67;;
16705;SDS011;8469;60.136;15.180;2022-12-19T08:01:19;33.48;;;5.22;;
16705;SDS011;8469;60.136;15.180;2022-12-19T08:03:46;32.23;;;5.33;;
16705;SDS011;8469;60.136;15.180;2022-12-19T08:06:14;29.23;;;5.33;;
16705;SDS011;8469;60.136;15.180;2022-12-19T08:08:41;28.38;;;5.40;;
16705;SDS011;8469;60.136;15.180;2022-12-19T08:11:10;27.23;;;4.70;;
16705;SDS011;8469;60.136;15.180;2022-12-19T08:13:38;24.43;;;4.42;;
16705;SDS011;8469;60.136;15.180;2022-12-19T08:16:05;29.90;;;4.62;;
16705;SDS011;8469;60.136;15.180;2022-12-19T08:18:33;16.73;;;4.25;;
16705;SDS011;8469;60.136;15.180;2022-12-19T08:21:00;17.02;;;4.35;;
16705;SDS011;8469;60.136;15.180;2022-12-19T08:23:28;17.98;;;4.20;;
16705;SDS011;8469;60.136;15.180;2022-12-19T08:25:59;20.60;;;4.42;;
16705;SDS011;8469;60.136;15.180;2022-12-19T08:28:26;16.42;;;4.33;;
16705;SDS011;8469;60.136;15.180;2022-12-19T08:30:54;28.32;;;4.80;;
16705;SDS011;8469;60.136;15.180;2022-12-19T08:33:21;26.33;;;4.70;;
16705;SDS011;8469;60.136;15.180;2022-12-19T08:35:48;19.45;;;4.70;;
16705;SDS011;8469;60.136;15.180;2022-12-19T08:38:16;25.05;;;6.15;;
16705;SDS011;8469;60.136;15.180;2022-12-19T08:40:43;27.55;;;6.25;;
16705;SDS011;8469;60.136;15.180;2022-12-19T08:43:12;29.37;;;6.83;;
16705;SDS011;8469;60.136;15.180;2022-12-19T08:45:39;24.27;;;6.17;;
16705;SDS011;8469;60.136;15.180;2022-12-19T08:48:07;32.50;;;6.47;;
16705;SDS011;8469;60.136;15.180;2022-12-19T08:50:34;28.35;;;5.45;;
16705;SDS011;8469;60.136;15.180;2022-12-19T08:53:02;23.15;;;5.08;;
16705;SDS011;8469;60.136;15.180;2022-12-19T08:55:29;24.67;;;5.35;;
16705;SDS011;8469;60.136;15.180;2022-12-19T08:57:56;16.20;;;4.58;;
16705;SDS011;8469;60.136;15.180;2022-12-19T09:00:24;17.25;;;4.50;;
16705;SDS011;8469;60.136;15.180;2022-12-19T09:02:51;15.98;;;4.58;;
16705;SDS011;8469;60.136;15.180;2022-12-19T09:05:18;21.87;;;5.67;;
16705;SDS011;8469;60.136;15.180;2022-12-19T09:07:46;16.57;;;4.50;;
16705;SDS011;8469;60.136;15.180;2022-12-19T09:10:13;20.85;;;5.00;;
16705;SDS011;8469;60.136;15.180;2022-12-19T09:12:41;20.92;;;5.17;;
16705;SDS011;8469;60.136;15.180;2022-12-19T09:15:08;15.45;;;4.60;;
16705;SDS011;8469;60.136;15.180;2022-12-19T09:17:35;17.25;;;4.80;;
16705;SDS011;8469;60.136;15.180;2022-12-19T09:20:03;16.40;;;4.42;;
16705;SDS011;8469;60.136;15.180;2022-12-19T09:22:30;20.37;;;4.62;;
16705;SDS011;8469;60.136;15.180;2022-12-19T09:24:58;17.60;;;4.80;;
16705;SDS011;8469;60.136;15.180;2022-12-19T09:27:25;15.72;;;4.70;;
16705;SDS011;8469;60.136;15.180;2022-12-19T09:29:53;16.67;;;4.85;;
16705;SDS011;8469;60.136;15.180;2022-12-19T09:32:20;24.65;;;6.87;;
16705;SDS011;8469;60.136;15.180;2022-12-19T09:34:47;18.48;;;6.95;;
16705;SDS011;8469;60.136;15.180;2022-12-19T09:37:15;25.40;;;7.45;;
16705;SDS011;8469;60.136;15.180;2022-12-19T09:39:42;22.77;;;6.15;;
16705;SDS011;8469;60.136;15.180;2022-12-19T09:47:17;22.07;;;8.00;;
16705;SDS011;8469;60.136;15.180;2022-12-19T09:49:46;20.20;;;6.30;;
16705;SDS011;8469;60.136;15.180;2022-12-19T09:52:22;18.47;;;5.33;;
16705;SDS011;8469;60.136;15.180;2022-12-19T09:54:52;20.10;;;6.00;;
16705;SDS011;8469;60.136;15.180;2022-12-19T09:59:53;17.52;;;6.30;;
16705;SDS011;8469;60.136;15.180;2022-12-19T10:05:10;16.75;;;6.03;;
16705;SDS011;8469;60.136;15.180;2022-12-19T10:07:33;21.15;;;6.72;;
16705;SDS011;8469;60.136;15.180;2022-12-19T10:10:01;20.55;;;6.80;;
16705;SDS011;8469;60.136;15.180;2022-12-19T10:15:05;20.10;;;6.80;;
16705;SDS011;8469;60.136;15.180;2022-12-19T10:17:37;16.02;;;6.70;;
16705;SDS011;8469;60.136;15.180;2022-12-19T10:23:34;17.27;;;5.50;;
16705;SDS011;8469;60.136;15.180;2022-12-19T10:25:30;13.43;;;4.90;;
16705;SDS011;8469;60.136;15.180;2022-12-19T10:27:58;16.37;;;4.87;;
16705;SDS011;8469;60.136;15.180;2022-12-19T10:30:25;13.38;;;4.70;;
16705;SDS011;8469;60.136;15.180;2022-12-19T10:32:56;13.70;;;4.53;;
16705;SDS011;8469;60.136;15.180;2022-12-19T10:35:22;18.42;;;5.70;;
16705;SDS011;8469;60.136;15.180;2022-12-19T10:37:52;19.80;;;6.60;;
16705;SDS011;8469;60.136;15.180;2022-12-19T10:40:22;17.57;;;6.45;;
16705;SDS011;8469;60.136;15.180;2022-12-19T10:45:36;15.95;;;6.05;;
16705;SDS011;8469;60.136;15.180;2022-12-19T10:48:02;15.72;;;5.78;;
16705;SDS011;8469;60.136;15.180;2022-12-19T10:50:30;14.95;;;6.03;;
16705;SDS011;8469;60.136;15.180;2022-12-19T10:55:50;21.97;;;7.17;;
16705;SDS011;8469;60.136;15.180;2022-12-19T10:58:19;24.07;;;9.83;;
16705;SDS011;8469;60.136;15.180;2022-12-19T11:03:21;23.10;;;9.10;;
16705;SDS011;8469;60.136;15.180;2022-12-19T11:05:49;22.87;;;7.67;;
16705;SDS011;8469;60.136;15.180;2022-12-19T11:08:18;19.67;;;5.92;;
16705;SDS011;8469;60.136;15.180;2022-12-19T11:10:47;15.98;;;6.72;;
16705;SDS011;8469;60.136;15.180;2022-12-19T11:13:23;15.93;;;6.17;;
16705;SDS011;8469;60.136;15.180;2022-12-19T11:15:51;17.92;;;5.85;;
16705;SDS011;8469;60.136;15.180;2022-12-19T11:18:19;15.45;;;5.62;;
16705;SDS011;8469;60.136;15.180;2022-12-19T11:20:54;14.20;;;5.97;;
16705;SDS011;8469;60.136;15.180;2022-12-19T11:23:21;16.20;;;5.40;;
16705;SDS011;8469;60.136;15.180;2022-12-19T11:25:53;15.35;;;5.55;;
16705;SDS011;8469;60.136;15.180;2022-12-19T11:28:33;16.50;;;6.08;;
16705;SDS011;8469;60.136;15.180;2022-12-19T11:33:30;16.35;;;6.15;;
16705;SDS011;8469;60.136;15.180;2022-12-19T11:35:59;19.30;;;5.42;;
16705;SDS011;8469;60.136;15.180;2022-12-19T11:40:56;19.07;;;6.33;;
16705;SDS011;8469;60.136;15.180;2022-12-19T11:46:22;15.05;;;7.20;;
16705;SDS011;8469;60.136;15.180;2022-12-19T11:48:47;16.27;;;7.22;;
16705;SDS011;8469;60.136;15.180;2022-12-19T11:51:51;14.35;;;5.30;;
16705;SDS011;8469;60.136;15.180;2022-12-19T11:54:36;12.18;;;5.42;;
16705;SDS011;8469;60.136;15.180;2022-12-19T11:56:20;11.18;;;4.85;;
16705;SDS011;8469;60.136;15.180;2022-12-19T11:58:49;8.20;;;4.37;;
16705;SDS011;8469;60.136;15.180;2022-12-19T12:06:35;10.55;;;5.30;;
16705;SDS011;8469;60.136;15.180;2022-12-19T12:11:41;6.97;;;4.10;;
16705;SDS011;8469;60.136;15.180;2022-12-19T12:19:31;7.67;;;4.10;;
16705;SDS011;8469;60.136;15.180;2022-12-19T12:21:59;11.15;;;4.15;;
16705;SDS011;8469;60.136;15.180;2022-12-19T12:29:45;7.67;;;4.00;;
16705;SDS011;8469;60.136;15.180;2022-12-19T12:40:03;5.37;;;3.42;;
16705;SDS011;8469;60.136;15.180;2022-12-19T12:42:40;8.13;;;3.67;;
16705;SDS011;8469;60.136;15.180;2022-12-19T12:45:19;6.55;;;3.02;;
16705;SDS011;8469;60.136;15.180;2022-12-19T12:47:47;4.67;;;3.12;;
16705;SDS011;8469;60.136;15.180;2022-12-19T12:50:15;7.45;;;3.30;;
16705;SDS011;8469;60.136;15.180;2022-12-19T12:52:45;7.22;;;3.58;;
16705;SDS011;8469;60.136;15.180;2022-12-19T12:55:23;6.72;;;3.60;;
16705;SDS011;8469;60.136;15.180;2022-12-19T12:57:48;5.15;;;3.25;;
16705;SDS011;8469;60.136;15.180;2022-12-19T13:00:20;6.12;;;3.27;;
16705;SDS011;8469;60.136;15.180;2022-12-19T13:27:57;5.60;;;3.47;;
16705;SDS011;8469;60.136;15.180;2022-12-19T13:30:26;9.28;;;3.25;;
16705;SDS011;8469;60.136;15.180;2022-12-19T13:37:59;6.47;;;3.50;;
16705;SDS011;8469;60.136;15.180;2022-12-19T13:43:12;7.65;;;3.55;;
16705;SDS011;8469;60.136;15.180;2022-12-19T13:46:06;7.12;;;3.30;;
16705;SDS011;8469;60.136;15.180;2022-12-19T13:48:34;7.80;;;3.67;;
16705;SDS011;8469;60.136;15.180;2022-12-19T13:51:07;6.65;;;3.55;;
16705;SDS011;8469;60.136;15.180;2022-12-19T13:53:30;9.33;;;3.63;;
16705;SDS011;8469;60.136;15.180;2022-12-19T13:56:13;6.80;;;3.50;;
16705;SDS011;8469;60.136;15.180;2022-12-19T13:58:44;9.23;;;4.00;;
16705;SDS011;8469;60.136;15.180;2022-12-19T14:01:22;4.80;;;3.60;;
16705;SDS011;8469;60.136;15.180;2022-12-19T14:03:44;8.20;;;3.90;;
16705;SDS011;8469;60.136;15.180;2022-12-19T14:06:21;8.50;;;3.95;;
16705;SDS011;8469;60.136;15.180;2022-12-19T14:08:48;5.65;;;3.40;;
16705;SDS011;8469;60.136;15.180;2022-12-19T14:11:17;5.80;;;3.15;;
16705;SDS011;8469;60.136;15.180;2022-12-19T14:13:47;7.08;;;3.42;;
16705;SDS011;8469;60.136;15.180;2022-12-19T14:16:32;7.62;;;3.67;;
16705;SDS011;8469;60.136;15.180;2022-12-19T14:19:00;9.80;;;4.00;;
16705;SDS011;8469;60.136;15.180;2022-12-19T14:21:27;7.47;;;3.70;;
16705;SDS011;8469;60.136;15.180;2022-12-19T14:24:16;8.15;;;3.50;;
16705;SDS011;8469;60.136;15.180;2022-12-19T14:26:40;8.78;;;3.55;;
16705;SDS011;8469;60.136;15.180;2022-12-19T14:29:11;9.18;;;3.70;;
16705;SDS011;8469;60.136;15.180;2022-12-19T14:31:37;5.90;;;3.65;;
16705;SDS011;8469;60.136;15.180;2022-12-19T14:34:07;8.10;;;3.75;;
16705;SDS011;8469;60.136;15.180;2022-12-19T14:36:35;6.97;;;3.73;;
16705;SDS011;8469;60.136;15.180;2022-12-19T14:39:04;8.78;;;4.00;;
16705;SDS011;8469;60.136;15.180;2022-12-19T14:41:34;9.50;;;3.87;;
16705;SDS011;8469;60.136;15.180;2022-12-19T14:44:18;7.87;;;3.65;;
16705;SDS011;8469;60.136;15.180;2022-12-19T14:49:31;8.33;;;3.80;;
16705;SDS011;8469;60.136;15.180;2022-12-19T14:52:01;8.68;;;3.60;;
16705;SDS011;8469;60.136;15.180;2022-12-19T14:54:27;7.17;;;3.58;;
16705;SDS011;8469;60.136;15.180;2022-12-19T14:56:55;7.53;;;3.85;;
16705;SDS011;8469;60.136;15.180;2022-12-19T14:59:28;7.70;;;3.83;;
16705;SDS011;8469;60.136;15.180;2022-12-19T15:01:59;8.08;;;3.67;;
16705;SDS011;8469;60.136;15.180;2022-12-19T15:04:29;6.95;;;3.92;;
16705;SDS011;8469;60.136;15.180;2022-12-19T15:06:56;6.10;;;3.47;;
16705;SDS011;8469;60.136;15.180;2022-12-19T15:09:29;9.35;;;4.35;;
16705;SDS011;8469;60.136;15.180;2022-12-19T15:11:56;10.08;;;4.40;;
16705;SDS011;8469;60.136;15.180;2022-12-19T15:15:06;7.87;;;4.30;;
16705;SDS011;8469;60.136;15.180;2022-12-19T15:17:43;7.37;;;3.72;;
16705;SDS011;8469;60.136;15.180;2022-12-19T15:20:09;9.98;;;4.47;;
16705;SDS011;8469;60.136;15.180;2022-12-19T15:22:37;8.88;;;4.17;;
16705;SDS011;8469;60.136;15.180;2022-12-19T15:25:06;5.95;;;3.58;;
16705;SDS011;8469;60.136;15.180;2022-12-19T15:27:33;8.55;;;4.45;;
16705;SDS011;8469;60.136;15.180;2022-12-19T15:30:01;10.65;;;4.60;;
16705;SDS011;8469;60.136;15.180;2022-12-19T15:32:28;12.30;;;4.53;;
16705;SDS011;8469;60.136;15.180;2022-12-19T15:34:55;10.82;;;4.40;;
16705;SDS011;8469;60.136;15.180;2022-12-19T15:37:23;8.25;;;4.45;;
16705;SDS011;8469;60.136;15.180;2022-12-19T15:39:50;11.53;;;4.67;;
16705;SDS011;8469;60.136;15.180;2022-12-19T15:42:19;11.60;;;5.03;;
16705;SDS011;8469;60.136;15.180;2022-12-19T15:44:47;7.55;;;4.20;;
16705;SDS011;8469;60.136;15.180;2022-12-19T15:47:21;9.58;;;4.70;;
16705;SDS011;8469;60.136;15.180;2022-12-19T15:49:44;10.13;;;4.08;;
16705;SDS011;8469;60.136;15.180;2022-12-19T15:52:17;8.20;;;4.20;;
16705;SDS011;8469;60.136;15.180;2022-12-19T15:54:41;10.38;;;4.60;;
16705;SDS011;8469;60.136;15.180;2022-12-19T15:57:14;9.00;;;4.40;;
16705;SDS011;8469;60.136;15.180;2022-12-19T15:59:38;10.20;;;4.15;;
16705;SDS011;8469;60.136;15.180;2022-12-19T16:02:13;10.80;;;4.53;;
16705;SDS011;8469;60.136;15.180;2022-12-19T16:04:41;11.85;;;5.22;;
16705;SDS011;8469;60.136;15.180;2022-12-19T16:07:12;10.93;;;5.07;;
16705;SDS011;8469;60.136;15.180;2022-12-19T16:09:37;11.73;;;5.03;;
16705;SDS011;8469;60.136;15.180;2022-12-19T16:12:04;11.08;;;5.05;;
16705;SDS011;8469;60.136;15.180;2022-12-19T16:14:32;11.40;;;5.20;;
16705;SDS011;8469;60.136;15.180;2022-12-19T16:16:59;10.50;;;4.78;;
16705;SDS011;8469;60.136;15.180;2022-12-19T16:19:27;11.60;;;5.62;;
16705;SDS011;8469;60.136;15.180;2022-12-19T16:21:57;12.35;;;5.20;;
16705;SDS011;8469;60.136;15.180;2022-12-19T16:24:25;10.98;;;4.70;;
16705;SDS011;8469;60.136;15.180;2022-12-19T16:26:53;13.68;;;5.25;;
16705;SDS011;8469;60.136;15.180;2022-12-19T16:29:22;11.15;;;5.12;;
16705;SDS011;8469;60.136;15.180;2022-12-19T16:31:50;11.03;;;5.40;;
16705;SDS011;8469;60.136;15.180;2022-12-19T16:34:18;13.55;;;5.53;;
16705;SDS011;8469;60.136;15.180;2022-12-19T16:36:47;13.80;;;5.58;;
16705;SDS011;8469;60.136;15.180;2022-12-19T16:39:15;13.08;;;5.33;;
16705;SDS011;8469;60.136;15.180;2022-12-19T16:41:43;12.43;;;5.42;;
16705;SDS011;8469;60.136;15.180;2022-12-19T16:44:14;13.60;;;6.28;;
16705;SDS011;8469;60.136;15.180;2022-12-19T16:46:42;17.87;;;6.08;;
16705;SDS011;8469;60.136;15.180;2022-12-19T16:49:15;15.60;;;6.37;;
16705;SDS011;8469;60.136;15.180;2022-12-19T16:51:38;14.00;;;6.08;;
16705;SDS011;8469;60.136;15.180;2022-12-19T16:54:06;17.35;;;6.67;;